Main page
METAR-TAF:

METAR-TAF

Airports :

Valley, Wales

RAF Valley

latitude: 53-15N, longitude: 004-32W, elevation: 1 m

Current weather observation

The report was made 46 minutes ago, at 12:50 UTC
Wind 20 kt from the West
Temperature 12°C
Humidity 71%
Pressure 1014 hPa
Visibility 10 km or more

METAR: EGOV 221250Z AUTO 27020KT 9999 FEW023/// BKN050/// 12/07 Q1014

Time: 14:36 (13:36 UTC)


TAF: missing

Weather observations and forecasts of more than 4000 airports (METAR and TAF reports).

The available stations are represented by yellow and red dots on the map.

Hover mouse over dot to see the name of the station.

Then click to see weather observations and forecasts.

To change the map : click on the green buttons with a black cross to zoom in, on the green button with a dash to zoom out, or on the green arrows for adjacent maps.


METAR-TAF: